TimeCDT,TemperatureF,Dew PointF,Humidity,Sea Level PressureIn,VisibilityMPH,Wind Direction,Wind SpeedMPH,Gust SpeedMPH,PrecipitationIn,Events,Conditions,WindDirDegrees,DateUTC
12:54 AM,35.1,34.0,96,29.23,3.0,North,3.5,-,N/A,,Overcast,10,2013-04-19 05:54:00
1:14 AM,35.6,33.8,93,29.19,2.5,Calm,Calm,-,N/A,,Overcast,0,2013-04-19 06:14:00
1:48 AM,33.8,33.8,100,29.16,3.0,North,3.5,-,0.00,Rain,Light Rain,360,2013-04-19 06:48:00
1:49 AM,34.0,34.0,100,29.19,3.0,North,3.5,-,0.00,Rain,Light Rain,10,2013-04-19 06:49:00
2:54 AM,34.0,34.0,100,29.17,4.0,Calm,Calm,-,0.00,,Overcast,0,2013-04-19 07:54:00
3:29 AM,35.6,33.8,93,29.12,2.5,SE,4.6,-,N/A,,Overcast,140,2013-04-19 08:29:00
3:51 AM,35.6,33.8,93,29.11,3.0,SE,4.6,-,0.00,Rain,Light Rain,140,2013-04-19 08:51:00
3:54 AM,35.1,34.0,96,29.14,5.0,SSE,3.5,-,0.00,Rain,Light Rain,150,2013-04-19 08:54:00
4:54 AM,36.0,34.0,93,29.13,10.0,South,9.2,-,0.00,Rain,Light Rain,180,2013-04-19 09:54:00
5:47 AM,35.6,32.0,87,29.09,10.0,South,8.1,17.3,0.00,,Overcast,180,2013-04-19 10:47:00
5:54 AM,34.0,32.0,92,29.12,10.0,South,8.1,-,0.00,,Overcast,180,2013-04-19 10:54:00
6:33 AM,33.8,32.0,93,29.08,10.0,South,9.2,-,N/A,,Overcast,190,2013-04-19 11:33:00
6:54 AM,33.1,32.0,96,29.11,8.0,South,10.4,-,N/A,,Overcast,180,2013-04-19 11:54:00
7:12 AM,33.8,32.0,93,29.07,2.5,South,9.2,-,0.00,Snow,Light Snow,180,2013-04-19 12:12:00
7:22 AM,33.8,32.0,93,29.07,4.0,South,8.1,-,0.00,Snow,Light Snow,190,2013-04-19 12:22:00
7:45 AM,33.8,32.0,93,29.07,2.5,South,5.8,-,0.00,Snow,Light Snow,180,2013-04-19 12:45:00
7:54 AM,33.1,32.0,96,29.10,3.0,South,5.8,-,0.00,,Overcast,190,2013-04-19 12:54:00
7:58 AM,33.8,32.0,93,29.06,1.8,South,6.9,-,0.00,Snow,Light Snow,180,2013-04-19 12:58:00
8:11 AM,33.8,32.0,93,29.07,0.8,West,9.2,-,0.00,Snow,Light Snow,280,2013-04-19 13:11:00
8:28 AM,32.0,30.2,93,29.08,1.0,NW,17.3,23.0,0.01,Snow,Light Snow,310,2013-04-19 13:28:00
8:37 AM,32.0,28.4,87,29.08,1.2,NW,18.4,-,0.01,Snow,Light Snow,310,2013-04-19 13:37:00
8:45 AM,32.0,28.4,87,29.08,2.0,NW,10.4,23.0,0.01,Snow,Light Snow,320,2013-04-19 13:45:00
8:54 AM,32.0,28.9,88,29.11,1.8,WNW,15.0,23.0,0.01,Snow,Light Snow,300,2013-04-19 13:54:00
9:39 AM,32.0,28.4,87,29.09,1.5,WNW,13.8,-,0.00,Snow,Light Snow,300,2013-04-19 14:39:00
9:49 AM,32.0,28.4,87,29.10,2.0,NW,15.0,-,0.00,Snow,Light Snow,310,2013-04-19 14:49:00
9:54 AM,32.0,28.9,88,29.13,2.5,WNW,13.8,23.0,0.00,Snow,Light Snow,300,2013-04-19 14:54:00
10:01 AM,32.0,28.4,87,29.10,5.0,NW,15.0,25.3,0.00,Snow,Light Snow,320,2013-04-19 15:01:00
10:17 AM,32.0,28.4,87,29.11,1.8,NW,13.8,24.2,0.00,Snow,Light Snow,320,2013-04-19 15:17:00
10:37 AM,32.0,28.4,87,29.13,3.0,NW,16.1,27.6,0.00,Snow,Light Snow,310,2013-04-19 15:37:00
10:54 AM,32.0,28.0,85,29.17,3.0,WNW,20.7,27.6,0.00,Snow,Light Snow,300,2013-04-19 15:54:00
11:21 AM,32.0,26.6,80,29.15,2.5,WNW,18.4,26.5,0.00,Snow,Light Snow,300,2013-04-19 16:21:00
11:32 AM,30.2,26.6,86,29.15,1.5,WNW,21.9,27.6,0.00,Snow,Light Snow,300,2013-04-19 16:32:00
11:41 AM,30.2,24.8,80,29.16,3.0,WNW,26.5,35.7,0.00,Snow,Light Snow,300,2013-04-19 16:41:00
11:54 AM,32.0,26.1,79,29.21,6.0,WNW,16.1,31.1,0.00,,Overcast,300,2013-04-19 16:54:00
12:27 PM,33.8,24.8,70,29.20,10.0,WNW,25.3,34.5,0.00,,Overcast,290,2013-04-19 17:27:00
12:54 PM,30.9,21.9,69,29.26,9.0,WNW,18.4,35.7,0.00,Snow,Light Snow,290,2013-04-19 17:54:00
1:05 PM,32.0,21.2,64,29.23,9.0,WNW,26.5,34.5,0.00,Snow,Light Snow,290,2013-04-19 18:05:00
1:54 PM,30.9,21.0,67,29.31,4.0,WNW,26.5,43.7,0.00,Snow,Light Snow,300,2013-04-19 18:54:00
2:54 PM,28.9,19.0,67,29.38,4.0,NW,28.8,38.0,0.00,Snow,Light Snow,310,2013-04-19 19:54:00
3:54 PM,30.0,17.1,59,29.43,10.0,WNW,24.2,32.2,0.00,,Overcast,290,2013-04-19 20:54:00
4:34 PM,26.6,17.6,69,29.44,2.5,NW,25.3,34.5,0.00,Snow,Light Snow,320,2013-04-19 21:34:00
4:42 PM,26.6,17.6,69,29.45,1.8,NW,24.2,34.5,0.00,Snow,Light Snow,310,2013-04-19 21:42:00
4:45 PM,26.6,17.6,69,29.45,3.0,NW,19.6,34.5,0.00,Snow,Light Snow,310,2013-04-19 21:45:00
4:54 PM,27.0,17.1,66,29.51,9.0,NW,23.0,31.1,0.00,,Overcast,310,2013-04-19 21:54:00
5:32 PM,24.8,17.6,74,29.51,1.8,NW,19.6,28.8,0.00,Snow,Light Snow,310,2013-04-19 22:32:00
5:42 PM,24.8,17.6,74,29.52,2.0,NNW,18.4,29.9,0.00,Snow,Light Snow,330,2013-04-19 22:42:00
5:50 PM,26.6,17.6,69,29.53,9.0,NW,16.1,25.3,0.00,,Overcast,320,2013-04-19 22:50:00
5:54 PM,26.1,17.1,69,29.58,9.0,NNW,12.7,23.0,0.00,,Overcast,330,2013-04-19 22:54:00
6:23 PM,24.8,15.8,69,29.55,7.0,NNW,15.0,23.0,0.00,Snow,Light Snow,330,2013-04-19 23:23:00
6:54 PM,23.0,17.1,78,29.64,2.5,NNW,12.7,23.0,0.00,Snow,Light Snow,340,2013-04-19 23:54:00
7:07 PM,23.0,17.6,80,29.59,5.0,NNW,12.7,-,0.00,Snow,Light Snow,340,2013-04-20 00:07:00
7:32 PM,23.0,17.6,80,29.61,10.0,North,13.8,20.7,0.00,,Overcast,350,2013-04-20 00:32:00
7:43 PM,21.2,17.6,86,29.62,6.0,North,11.5,20.7,0.00,Snow,Light Snow,350,2013-04-20 00:43:00
7:54 PM,21.9,16.0,78,29.68,7.0,NNW,16.1,25.3,0.00,Snow,Light Snow,340,2013-04-20 00:54:00
8:04 PM,21.2,15.8,80,29.64,6.0,NNW,15.0,24.2,0.00,Snow,Light Snow,330,2013-04-20 01:04:00
8:11 PM,23.0,14.0,68,29.64,8.0,NW,20.7,31.1,0.00,Snow,Light Snow,320,2013-04-20 01:11:00
8:54 PM,21.9,12.9,68,29.73,10.0,NW,15.0,21.9,0.00,,Mostly Cloudy,320,2013-04-20 01:54:00
9:13 PM,21.2,14.0,74,29.69,10.0,NNW,12.7,20.7,N/A,,Overcast,330,2013-04-20 02:13:00
9:54 PM,21.9,12.9,68,29.77,10.0,NW,18.4,25.3,N/A,,Overcast,310,2013-04-20 02:54:00
10:44 PM,21.2,15.8,80,29.75,9.0,NW,12.7,20.7,0.00,Snow,Light Snow,310,2013-04-20 03:44:00
10:54 PM,21.0,15.1,78,29.81,6.0,NW,12.7,-,0.00,Snow,Light Snow,320,2013-04-20 03:54:00
11:01 PM,21.2,15.8,80,29.76,8.0,NW,11.5,-,0.00,Snow,Light Snow,320,2013-04-20 04:01:00
11:54 PM,21.9,14.0,72,29.83,10.0,NW,12.7,-,0.00,,Mostly Cloudy,320,2013-04-20 04:54:00